sensor_id;sensor_type;location;lat;lon;timestamp;pressure;altitude;pressure_sealevel;temperature;humidity
11268;BME280;49397;47.474;9.416;2022-11-14T00:02:03;95462.06;;;4.93;100.00
11268;BME280;49397;47.474;9.416;2022-11-14T00:04:29;95459.97;;;4.85;100.00
11268;BME280;49397;47.474;9.416;2022-11-14T00:06:54;95456.53;;;4.59;100.00
11268;BME280;49397;47.474;9.416;2022-11-14T00:09:24;95461.06;;;4.79;100.00
11268;BME280;49397;47.474;9.416;2022-11-14T00:11:50;95462.91;;;4.83;100.00
11268;BME280;49397;47.474;9.416;2022-11-14T00:14:16;95447.38;;;4.70;100.00
11268;BME280;49397;47.474;9.416;2022-11-14T00:16:41;95471.28;;;4.72;100.00
11268;BME280;49397;47.474;9.416;2022-11-14T00:19:07;95467.00;;;4.71;100.00
11268;BME280;49397;47.474;9.416;2022-11-14T00:21:32;95456.22;;;4.76;100.00
11268;BME280;49397;47.474;9.416;2022-11-14T00:23:57;95460.25;;;4.78;100.00
11268;BME280;49397;47.474;9.416;2022-11-14T00:26:23;95455.97;;;4.72;100.00
11268;BME280;49397;47.474;9.416;2022-11-14T00:28:48;95459.47;;;4.68;100.00
11268;BME280;49397;47.474;9.416;2022-11-14T00:31:14;95449.78;;;4.66;100.00
11268;BME280;49397;47.474;9.416;2022-11-14T00:33:40;95453.56;;;4.71;100.00
11268;BME280;49397;47.474;9.416;2022-11-14T00:36:05;95451.41;;;4.68;100.00
11268;BME280;49397;47.474;9.416;2022-11-14T00:38:31;95454.09;;;4.68;100.00
11268;BME280;49397;47.474;9.416;2022-11-14T00:40:56;95447.63;;;4.79;100.00
11268;BME280;49397;47.474;9.416;2022-11-14T00:43:22;95455.91;;;4.82;100.00
11268;BME280;49397;47.474;9.416;2022-11-14T00:45:47;95447.91;;;4.72;100.00
11268;BME280;49397;47.474;9.416;2022-11-14T00:48:13;95453.00;;;4.74;100.00
11268;BME280;49397;47.474;9.416;2022-11-14T00:50:39;95451.91;;;4.75;100.00
11268;BME280;49397;47.474;9.416;2022-11-14T00:53:05;95448.44;;;4.74;100.00
11268;BME280;49397;47.474;9.416;2022-11-14T00:55:31;95439.03;;;4.66;100.00
11268;BME280;49397;47.474;9.416;2022-11-14T00:57:56;95438.28;;;4.56;100.00
11268;BME280;49397;47.474;9.416;2022-11-14T01:00:22;95450.88;;;4.65;100.00
11268;BME280;49397;47.474;9.416;2022-11-14T01:02:47;95447.09;;;4.66;100.00
11268;BME280;49397;47.474;9.416;2022-11-14T01:05:13;95443.09;;;4.69;100.00
11268;BME280;49397;47.474;9.416;2022-11-14T01:07:38;95436.06;;;4.73;100.00
11268;BME280;49397;47.474;9.416;2022-11-14T01:10:05;95432.56;;;4.78;100.00
11268;BME280;49397;47.474;9.416;2022-11-14T01:12:30;95437.38;;;4.81;100.00
11268;BME280;49397;47.474;9.416;2022-11-14T01:14:57;95431.72;;;4.82;100.00
11268;BME280;49397;47.474;9.416;2022-11-14T01:17:22;95425.88;;;4.70;100.00
11268;BME280;49397;47.474;9.416;2022-11-14T01:19:48;95417.78;;;4.75;100.00
11268;BME280;49397;47.474;9.416;2022-11-14T01:22:14;95428.00;;;4.78;100.00
11268;BME280;49397;47.474;9.416;2022-11-14T01:24:39;95425.59;;;4.77;100.00
11268;BME280;49397;47.474;9.416;2022-11-14T01:27:04;95433.63;;;4.87;100.00
11268;BME280;49397;47.474;9.416;2022-11-14T01:29:30;95414.00;;;4.81;100.00
11268;BME280;49397;47.474;9.416;2022-11-14T01:31:55;95420.97;;;4.87;100.00
11268;BME280;49397;47.474;9.416;2022-11-14T01:34:22;95423.63;;;4.92;100.00
11268;BME280;49397;47.474;9.416;2022-11-14T01:36:47;95427.41;;;4.96;100.00
11268;BME280;49397;47.474;9.416;2022-11-14T01:39:13;95425.19;;;5.08;100.00
11268;BME280;49397;47.474;9.416;2022-11-14T01:41:38;95422.50;;;5.08;100.00
11268;BME280;49397;47.474;9.416;2022-11-14T01:44:11;95419.25;;;5.06;100.00
11268;BME280;49397;47.474;9.416;2022-11-14T01:46:39;95421.69;;;5.03;100.00
11268;BME280;49397;47.474;9.416;2022-11-14T01:51:47;95418.47;;;5.06;100.00
11268;BME280;49397;47.474;9.416;2022-11-14T01:54:27;95421.13;;;5.11;100.00
11268;BME280;49397;47.474;9.416;2022-11-14T01:56:56;95426.75;;;5.14;100.00
11268;BME280;49397;47.474;9.416;2022-11-14T01:59:28;95417.91;;;5.14;100.00
11268;BME280;49397;47.474;9.416;2022-11-14T02:01:57;95415.97;;;5.24;100.00
11268;BME280;49397;47.474;9.416;2022-11-14T02:04:27;95415.94;;;5.29;100.00
11268;BME280;49397;47.474;9.416;2022-11-14T02:06:58;95412.69;;;5.32;100.00
11268;BME280;49397;47.474;9.416;2022-11-14T02:09:25;95395.75;;;5.27;100.00
11268;BME280;49397;47.474;9.416;2022-11-14T02:11:54;95406.25;;;5.28;100.00
11268;BME280;49397;47.474;9.416;2022-11-14T02:14:21;95410.31;;;5.21;100.00
11268;BME280;49397;47.474;9.416;2022-11-14T02:16:47;95408.72;;;5.20;100.00
11268;BME280;49397;47.474;9.416;2022-11-14T02:19:13;95404.13;;;5.20;100.00
11268;BME280;49397;47.474;9.416;2022-11-14T02:21:39;95406.88;;;5.15;100.00
11268;BME280;49397;47.474;9.416;2022-11-14T02:24:10;95415.41;;;5.22;100.00
11268;BME280;49397;47.474;9.416;2022-11-14T02:26:37;95405.00;;;5.11;100.00
11268;BME280;49397;47.474;9.416;2022-11-14T02:29:04;95406.25;;;5.23;100.00
11268;BME280;49397;47.474;9.416;2022-11-14T02:31:30;95398.75;;;5.20;100.00
11268;BME280;49397;47.474;9.416;2022-11-14T02:33:55;95416.22;;;5.28;100.00
11268;BME280;49397;47.474;9.416;2022-11-14T02:36:21;95417.53;;;5.30;100.00
11268;BME280;49397;47.474;9.416;2022-11-14T02:38:46;95408.16;;;5.28;100.00
11268;BME280;49397;47.474;9.416;2022-11-14T02:41:12;95407.56;;;5.36;100.00
11268;BME280;49397;47.474;9.416;2022-11-14T02:43:37;95412.41;;;5.34;100.00
11268;BME280;49397;47.474;9.416;2022-11-14T02:46:03;95415.81;;;5.44;100.00
11268;BME280;49397;47.474;9.416;2022-11-14T02:48:28;95396.25;;;5.39;100.00
11268;BME280;49397;47.474;9.416;2022-11-14T02:50:54;95392.19;;;5.36;100.00
11268;BME280;49397;47.474;9.416;2022-11-14T02:53:19;95396.44;;;5.47;100.00
11268;BME280;49397;47.474;9.416;2022-11-14T02:55:45;95394.81;;;5.51;100.00
11268;BME280;49397;47.474;9.416;2022-11-14T02:58:10;95397.84;;;5.40;100.00
11268;BME280;49397;47.474;9.416;2022-11-14T03:00:36;95401.63;;;5.39;100.00
11268;BME280;49397;47.474;9.416;2022-11-14T03:03:01;95398.88;;;5.44;100.00
11268;BME280;49397;47.474;9.416;2022-11-14T03:05:27;95403.16;;;5.50;100.00
11268;BME280;49397;47.474;9.416;2022-11-14T03:07:53;95406.69;;;5.45;100.00
11268;BME280;49397;47.474;9.416;2022-11-14T03:10:20;95402.91;;;5.46;100.00
11268;BME280;49397;47.474;9.416;2022-11-14T03:12:46;95402.13;;;5.41;100.00
11268;BME280;49397;47.474;9.416;2022-11-14T03:15:11;95401.03;;;5.47;100.00
11268;BME280;49397;47.474;9.416;2022-11-14T03:17:37;95399.22;;;5.37;100.00
11268;BME280;49397;47.474;9.416;2022-11-14T03:20:04;95402.97;;;5.36;100.00
11268;BME280;49397;47.474;9.416;2022-11-14T03:22:30;95396.53;;;5.37;100.00
11268;BME280;49397;47.474;9.416;2022-11-14T03:24:56;95389.03;;;5.29;100.00
11268;BME280;49397;47.474;9.416;2022-11-14T03:27:21;95402.41;;;5.39;100.00
11268;BME280;49397;47.474;9.416;2022-11-14T03:29:47;95403.22;;;5.40;100.00
11268;BME280;49397;47.474;9.416;2022-11-14T03:32:13;95401.56;;;5.44;100.00
11268;BME280;49397;47.474;9.416;2022-11-14T03:34:38;95400.53;;;5.40;100.00
11268;BME280;49397;47.474;9.416;2022-11-14T03:37:04;95377.69;;;5.37;100.00
11268;BME280;49397;47.474;9.416;2022-11-14T03:39:29;95389.94;;;5.53;100.00
11268;BME280;49397;47.474;9.416;2022-11-14T03:41:55;95393.19;;;5.50;100.00
11268;BME280;49397;47.474;9.416;2022-11-14T03:44:20;95392.97;;;5.47;100.00
11268;BME280;49397;47.474;9.416;2022-11-14T03:46:46;95391.56;;;5.54;100.00
11268;BME280;49397;47.474;9.416;2022-11-14T03:49:11;95389.63;;;5.60;100.00
11268;BME280;49397;47.474;9.416;2022-11-14T03:51:37;95377.28;;;5.54;100.00
11268;BME280;49397;47.474;9.416;2022-11-14T03:54:02;95391.56;;;5.54;100.00
11268;BME280;49397;47.474;9.416;2022-11-14T03:56:28;95384.25;;;5.55;100.00
11268;BME280;49397;47.474;9.416;2022-11-14T03:58:53;95388.09;;;5.49;100.00
11268;BME280;49397;47.474;9.416;2022-11-14T04:01:19;95385.69;;;5.42;100.00
11268;BME280;49397;47.474;9.416;2022-11-14T04:03:44;95383.84;;;5.38;100.00
11268;BME280;49397;47.474;9.416;2022-11-14T04:06:10;95392.19;;;5.41;100.00
11268;BME280;49397;47.474;9.416;2022-11-14T04:08:35;95391.59;;;5.49;100.00
11268;BME280;49397;47.474;9.416;2022-11-14T04:11:01;95394.25;;;5.54;100.00
11268;BME280;49397;47.474;9.416;2022-11-14T04:13:26;95390.19;;;5.57;100.00
11268;BME280;49397;47.474;9.416;2022-11-14T04:15:55;95383.78;;;5.48;100.00
11268;BME280;49397;47.474;9.416;2022-11-14T04:18:22;95384.88;;;5.47;100.00
11268;BME280;49397;47.474;9.416;2022-11-14T04:20:48;95378.69;;;5.46;100.00
11268;BME280;49397;47.474;9.416;2022-11-14T04:23:13;95366.84;;;5.47;100.00
11268;BME280;49397;47.474;9.416;2022-11-14T04:25:39;95373.59;;;5.45;100.00
11268;BME280;49397;47.474;9.416;2022-11-14T04:28:04;95361.88;;;5.31;100.00
11268;BME280;49397;47.474;9.416;2022-11-14T04:30:30;95367.91;;;5.51;100.00
11268;BME280;49397;47.474;9.416;2022-11-14T04:32:55;95376.28;;;5.45;100.00
11268;BME280;49397;47.474;9.416;2022-11-14T04:35:20;95363.88;;;5.49;100.00
11268;BME280;49397;47.474;9.416;2022-11-14T04:37:46;95361.75;;;5.46;100.00
11268;BME280;49397;47.474;9.416;2022-11-14T04:40:11;95368.47;;;5.48;100.00
11268;BME280;49397;47.474;9.416;2022-11-14T04:42:37;95376.28;;;5.45;100.00
11268;BME280;49397;47.474;9.416;2022-11-14T04:45:03;95374.34;;;5.50;100.00
11268;BME280;49397;47.474;9.416;2022-11-14T04:47:28;95366.25;;;5.55;100.00
11268;BME280;49397;47.474;9.416;2022-11-14T04:49:54;95375.19;;;5.46;100.00
11268;BME280;49397;47.474;9.416;2022-11-14T04:52:19;95364.69;;;5.49;100.00
11268;BME280;49397;47.474;9.416;2022-11-14T04:54:45;95353.91;;;5.49;100.00
11268;BME280;49397;47.474;9.416;2022-11-14T04:57:10;95358.13;;;5.60;100.00
11268;BME280;49397;47.474;9.416;2022-11-14T04:59:35;95351.16;;;5.59;100.00
11268;BME280;49397;47.474;9.416;2022-11-14T05:02:01;95348.41;;;5.64;100.00
11268;BME280;49397;47.474;9.416;2022-11-14T05:04:26;95348.38;;;5.69;100.00
11268;BME280;49397;47.474;9.416;2022-11-14T05:06:52;95324.25;;;5.59;100.00
11268;BME280;49397;47.474;9.416;2022-11-14T05:09:17;95325.31;;;5.58;100.00
11268;BME280;49397;47.474;9.416;2022-11-14T05:11:43;95328.22;;;5.67;100.00
11268;BME280;49397;47.474;9.416;2022-11-14T05:14:08;95327.59;;;5.75;100.00
11268;BME280;49397;47.474;9.416;2022-11-14T05:16:34;95323.25;;;5.79;100.00
11268;BME280;49397;47.474;9.416;2022-11-14T05:18:59;95321.38;;;5.79;100.00
11268;BME280;49397;47.474;9.416;2022-11-14T05:21:25;95332.72;;;5.76;100.00
11268;BME280;49397;47.474;9.416;2022-11-14T05:23:50;95331.38;;;5.74;100.00
11268;BME280;49397;47.474;9.416;2022-11-14T05:26:17;95338.16;;;5.66;100.00
11268;BME280;49397;47.474;9.416;2022-11-14T05:28:42;95316.41;;;5.63;100.00
11268;BME280;49397;47.474;9.416;2022-11-14T05:31:11;95319.81;;;5.73;100.00
11268;BME280;49397;47.474;9.416;2022-11-14T05:33:44;95321.13;;;5.76;100.00
11268;BME280;49397;47.474;9.416;2022-11-14T05:36:12;95321.94;;;5.76;100.00
11268;BME280;49397;47.474;9.416;2022-11-14T05:38:38;95308.03;;;5.64;100.00
11268;BME280;49397;47.474;9.416;2022-11-14T05:41:11;95314.16;;;5.75;100.00
11268;BME280;49397;47.474;9.416;2022-11-14T05:43:37;95314.44;;;5.73;100.00
11268;BME280;49397;47.474;9.416;2022-11-14T05:46:05;95319.22;;;5.81;100.00
11268;BME280;49397;47.474;9.416;2022-11-14T05:48:31;95310.88;;;5.83;100.00
11268;BME280;49397;47.474;9.416;2022-11-14T05:51:00;95311.88;;;5.92;100.00
11268;BME280;49397;47.474;9.416;2022-11-14T05:53:27;95307.28;;;5.92;100.00
11268;BME280;49397;47.474;9.416;2022-11-14T05:55:53;95306.66;;;6.00;100.00
11268;BME280;49397;47.474;9.416;2022-11-14T05:58:20;95307.16;;;6.02;100.00
11268;BME280;49397;47.474;9.416;2022-11-14T06:00:45;95307.50;;;5.96;100.00
11268;BME280;49397;47.474;9.416;2022-11-14T06:03:11;95307.00;;;5.94;100.00
11268;BME280;49397;47.474;9.416;2022-11-14T06:05:39;95300.91;;;5.83;100.00
11268;BME280;49397;47.474;9.416;2022-11-14T06:08:05;95313.25;;;5.89;100.00
11268;BME280;49397;47.474;9.416;2022-11-14T06:10:30;95319.66;;;5.93;100.00
11268;BME280;49397;47.474;9.416;2022-11-14T06:12:56;95333.25;;;5.78;100.00
11268;BME280;49397;47.474;9.416;2022-11-14T06:15:21;95327.53;;;5.85;100.00
11268;BME280;49397;47.474;9.416;2022-11-14T06:17:47;95334.50;;;5.91;100.00
11268;BME280;49397;47.474;9.416;2022-11-14T06:20:13;95320.78;;;5.87;100.00
11268;BME280;49397;47.474;9.416;2022-11-14T06:22:40;95314.88;;;5.85;100.00
11268;BME280;49397;47.474;9.416;2022-11-14T06:25:06;95316.09;;;5.98;100.00
11268;BME280;49397;47.474;9.416;2022-11-14T06:27:31;95317.38;;;6.05;100.00
11268;BME280;49397;47.474;9.416;2022-11-14T06:29:57;95315.44;;;6.11;100.00
11268;BME280;49397;47.474;9.416;2022-11-14T06:32:22;95300.97;;;8.65;100.00
11268;BME280;49397;47.474;9.416;2022-11-14T06:34:48;95318.03;;;7.74;100.00
11268;BME280;49397;47.474;9.416;2022-11-14T06:37:13;95319.50;;;7.35;100.00
11268;BME280;49397;47.474;9.416;2022-11-14T06:39:39;95324.19;;;7.11;100.00
11268;BME280;49397;47.474;9.416;2022-11-14T06:42:04;95325.47;;;6.95;100.00
11268;BME280;49397;47.474;9.416;2022-11-14T06:44:29;95322.31;;;6.88;100.00
11268;BME280;49397;47.474;9.416;2022-11-14T06:46:55;95331.06;;;6.80;100.00
11268;BME280;49397;47.474;9.416;2022-11-14T06:49:21;95325.06;;;6.64;100.00
11268;BME280;49397;47.474;9.416;2022-11-14T06:51:48;95309.59;;;6.51;100.00
11268;BME280;49397;47.474;9.416;2022-11-14T06:54:13;95337.00;;;6.58;100.00
11268;BME280;49397;47.474;9.416;2022-11-14T06:56:39;95334.59;;;6.57;100.00
11268;BME280;49397;47.474;9.416;2022-11-14T06:59:04;95328.63;;;6.60;100.00
11268;BME280;49397;47.474;9.416;2022-11-14T07:01:30;95320.63;;;6.50;100.00
11268;BME280;49397;47.474;9.416;2022-11-14T07:03:55;95323.63;;;6.48;100.00
11268;BME280;49397;47.474;9.416;2022-11-14T07:06:26;95329.09;;;6.67;100.00
11268;BME280;49397;47.474;9.416;2022-11-14T07:08:53;95341.97;;;6.70;100.00
11268;BME280;49397;47.474;9.416;2022-11-14T07:11:24;95341.22;;;6.64;100.00
11268;BME280;49397;47.474;9.416;2022-11-14T07:13:59;95342.31;;;6.63;100.00
11268;BME280;49397;47.474;9.416;2022-11-14T07:16:30;95348.16;;;6.70;100.00
11268;BME280;49397;47.474;9.416;2022-11-14T07:18:57;95352.13;;;6.78;100.00
11268;BME280;49397;47.474;9.416;2022-11-14T07:21:24;95340.53;;;6.77;100.00
11268;BME280;49397;47.474;9.416;2022-11-14T07:23:50;95359.44;;;6.96;100.00
11268;BME280;49397;47.474;9.416;2022-11-14T07:26:16;95355.31;;;7.03;100.00
11268;BME280;49397;47.474;9.416;2022-11-14T07:28:43;95363.81;;;7.10;100.00
11268;BME280;49397;47.474;9.416;2022-11-14T07:31:11;95365.59;;;7.20;100.00
11268;BME280;49397;47.474;9.416;2022-11-14T07:33:38;95359.31;;;7.24;100.00
11268;BME280;49397;47.474;9.416;2022-11-14T07:36:04;95369.88;;;7.21;100.00
11268;BME280;49397;47.474;9.416;2022-11-14T07:38:31;95353.09;;;7.05;100.00
11268;BME280;49397;47.474;9.416;2022-11-14T07:40:59;95360.13;;;7.06;100.00
11268;BME280;49397;47.474;9.416;2022-11-14T07:43:25;95361.63;;;6.94;100.00
11268;BME280;49397;47.474;9.416;2022-11-14T07:45:50;95358.00;;;6.80;100.00
11268;BME280;49397;47.474;9.416;2022-11-14T07:48:16;95348.72;;;6.67;100.00
11268;BME280;49397;47.474;9.416;2022-11-14T07:50:42;95352.47;;;6.71;100.00
11268;BME280;49397;47.474;9.416;2022-11-14T07:53:08;95366.34;;;6.83;100.00
11268;BME280;49397;47.474;9.416;2022-11-14T07:55:35;95372.81;;;6.82;100.00
11268;BME280;49397;47.474;9.416;2022-11-14T07:58:00;95371.72;;;6.83;100.00
11268;BME280;49397;47.474;9.416;2022-11-14T08:00:26;95382.41;;;6.93;100.00
11268;BME280;49397;47.474;9.416;2022-11-14T08:02:51;95384.81;;;6.95;100.00
11268;BME280;49397;47.474;9.416;2022-11-14T08:05:17;95375.75;;;6.86;100.00
11268;BME280;49397;47.474;9.416;2022-11-14T08:07:43;95381.63;;;6.88;100.00
11268;BME280;49397;47.474;9.416;2022-11-14T08:10:09;95386.88;;;6.79;100.00
11268;BME280;49397;47.474;9.416;2022-11-14T08:12:36;95393.06;;;6.80;100.00
11268;BME280;49397;47.474;9.416;2022-11-14T08:15:07;95393.44;;;6.73;100.00
11268;BME280;49397;47.474;9.416;2022-11-14T08:17:33;95391.22;;;6.75;100.00
11268;BME280;49397;47.474;9.416;2022-11-14T08:19:58;95402.06;;;6.70;100.00
11268;BME280;49397;47.474;9.416;2022-11-14T08:22:24;95394.75;;;6.76;100.00
11268;BME280;49397;47.474;9.416;2022-11-14T08:24:49;95393.97;;;6.70;100.00
11268;BME280;49397;47.474;9.416;2022-11-14T08:27:15;95391.22;;;6.75;100.00
11268;BME280;49397;47.474;9.416;2022-11-14T08:29:40;95408.16;;;6.81;100.00
11268;BME280;49397;47.474;9.416;2022-11-14T08:32:06;95412.97;;;6.84;100.00
11268;BME280;49397;47.474;9.416;2022-11-14T08:34:31;95420.25;;;6.83;100.00
11268;BME280;49397;47.474;9.416;2022-11-14T08:36:57;95426.41;;;6.89;100.00
11268;BME280;49397;47.474;9.416;2022-11-14T08:39:22;95431.97;;;6.97;100.00
11268;BME280;49397;47.474;9.416;2022-11-14T08:41:48;95415.69;;;6.84;100.00
11268;BME280;49397;47.474;9.416;2022-11-14T08:44:13;95425.25;;;6.95;100.00
11268;BME280;49397;47.474;9.416;2022-11-14T08:46:39;95433.44;;;7.08;100.00
11268;BME280;49397;47.474;9.416;2022-11-14T08:49:04;95444.94;;;6.95;100.00
11268;BME280;49397;47.474;9.416;2022-11-14T08:51:30;95463.28;;;6.93;100.00
11268;BME280;49397;47.474;9.416;2022-11-14T08:53:55;95458.78;;;6.89;100.00
11268;BME280;49397;47.474;9.416;2022-11-14T08:56:21;95462.78;;;6.91;100.00
11268;BME280;49397;47.474;9.416;2022-11-14T08:58:47;95458.91;;;6.97;100.00
11268;BME280;49397;47.474;9.416;2022-11-14T09:01:12;95447.66;;;6.95;100.00
11268;BME280;49397;47.474;9.416;2022-11-14T09:03:38;95464.03;;;6.99;100.00
11268;BME280;49397;47.474;9.416;2022-11-14T09:06:03;95466.44;;;7.00;100.00
11268;BME280;49397;47.474;9.416;2022-11-14T09:08:29;95467.19;;;7.06;100.00
11268;BME280;49397;47.474;9.416;2022-11-14T09:10:54;95463.91;;;7.09;100.00
11268;BME280;49397;47.474;9.416;2022-11-14T09:13:20;95461.41;;;7.17;100.00
11268;BME280;49397;47.474;9.416;2022-11-14T09:15:46;95448.47;;;7.56;100.00
11268;BME280;49397;47.474;9.416;2022-11-14T09:18:12;95448.75;;;7.73;100.00
11268;BME280;49397;47.474;9.416;2022-11-14T09:20:37;95459.56;;;8.11;100.00
11268;BME280;49397;47.474;9.416;2022-11-14T09:23:03;95448.72;;;8.29;100.00
11268;BME280;49397;47.474;9.416;2022-11-14T09:25:30;95456.25;;;8.32;100.00
11268;BME280;49397;47.474;9.416;2022-11-14T09:27:56;95463.22;;;8.52;100.00
11268;BME280;49397;47.474;9.416;2022-11-14T09:30:21;95475.56;;;8.58;99.98
11268;BME280;49397;47.474;9.416;2022-11-14T09:32:48;95465.13;;;8.51;100.00
11268;BME280;49397;47.474;9.416;2022-11-14T09:35:13;95472.13;;;8.52;100.00
11268;BME280;49397;47.474;9.416;2022-11-14T09:37:39;95462.50;;;8.46;100.00
11268;BME280;49397;47.474;9.416;2022-11-14T09:40:05;95460.31;;;8.62;98.45
11268;BME280;49397;47.474;9.416;2022-11-14T09:42:57;95453.84;;;8.63;100.00
11268;BME280;49397;47.474;9.416;2022-11-14T09:45:28;95463.66;;;8.72;96.22
11268;BME280;49397;47.474;9.416;2022-11-14T09:48:15;95472.06;;;8.71;99.03
11268;BME280;49397;47.474;9.416;2022-11-14T09:50:47;95466.16;;;8.69;100.00
11268;BME280;49397;47.474;9.416;2022-11-14T09:55:42;95460.44;;;8.70;99.69
11268;BME280;49397;47.474;9.416;2022-11-14T09:58:14;95470.97;;;8.85;94.60
11268;BME280;49397;47.474;9.416;2022-11-14T10:01:04;95478.31;;;8.85;97.49
11268;BME280;49397;47.474;9.416;2022-11-14T10:11:42;95450.06;;;9.04;94.60
11268;BME280;49397;47.474;9.416;2022-11-14T10:22:47;95449.56;;;9.16;94.90
11268;BME280;49397;47.474;9.416;2022-11-14T10:25:23;95454.56;;;9.23;92.18
11268;BME280;49397;47.474;9.416;2022-11-14T10:31:04;95451.56;;;9.24;93.16
11268;BME280;49397;47.474;9.416;2022-11-14T10:36:04;95448.13;;;9.46;89.39
11268;BME280;49397;47.474;9.416;2022-11-14T10:38:41;95438.19;;;9.55;86.53
11268;BME280;49397;47.474;9.416;2022-11-14T10:41:12;95429.34;;;9.63;86.95
11268;BME280;49397;47.474;9.416;2022-11-14T10:43:43;95431.91;;;9.81;84.54
11268;BME280;49397;47.474;9.416;2022-11-14T10:48:48;95422.56;;;9.87;84.73
11268;BME280;49397;47.474;9.416;2022-11-14T10:53:55;95431.03;;;9.94;84.73
11268;BME280;49397;47.474;9.416;2022-11-14T10:56:22;95425.09;;;10.19;80.22
11268;BME280;49397;47.474;9.416;2022-11-14T10:58:48;95409.59;;;10.20;83.83
11268;BME280;49397;47.474;9.416;2022-11-14T11:06:56;95415.31;;;10.18;93.73
11268;BME280;49397;47.474;9.416;2022-11-14T11:09:24;95410.91;;;10.22;96.95
11268;BME280;49397;47.474;9.416;2022-11-14T11:12:15;95423.88;;;10.34;96.12
11268;BME280;49397;47.474;9.416;2022-11-14T11:14:42;95417.41;;;10.43;87.15
11268;BME280;49397;47.474;9.416;2022-11-14T11:17:19;95422.47;;;10.58;87.80
11268;BME280;49397;47.474;9.416;2022-11-14T11:19:46;95428.06;;;10.62;83.07
11268;BME280;49397;47.474;9.416;2022-11-14T11:24:51;95415.84;;;10.73;82.40
11268;BME280;49397;47.474;9.416;2022-11-14T11:32:31;95404.56;;;10.88;80.79
11268;BME280;49397;47.474;9.416;2022-11-14T11:34:58;95385.44;;;10.93;79.69
11268;BME280;49397;47.474;9.416;2022-11-14T11:40:25;95394.97;;;11.38;77.41
11268;BME280;49397;47.474;9.416;2022-11-14T11:43:01;95395.78;;;11.39;76.48
11268;BME280;49397;47.474;9.416;2022-11-14T11:45:31;95397.09;;;11.50;77.58
11268;BME280;49397;47.474;9.416;2022-11-14T11:48:03;95404.13;;;11.42;85.68
11268;BME280;49397;47.474;9.416;2022-11-14T11:50:30;95405.31;;;11.19;86.49
11268;BME280;49397;47.474;9.416;2022-11-14T11:55:46;95395.06;;;11.64;73.06
11268;BME280;49397;47.474;9.416;2022-11-14T11:58:24;95393.16;;;11.98;70.05
11268;BME280;49397;47.474;9.416;2022-11-14T12:00:51;95386.13;;;12.23;66.27
11268;BME280;49397;47.474;9.416;2022-11-14T12:03:20;95383.84;;;12.34;66.56
11268;BME280;49397;47.474;9.416;2022-11-14T12:06:15;95384.34;;;12.36;66.44
11268;BME280;49397;47.474;9.416;2022-11-14T12:11:48;95387.53;;;12.38;68.64
11268;BME280;49397;47.474;9.416;2022-11-14T12:25:33;95382.38;;;12.53;72.48
11268;BME280;49397;47.474;9.416;2022-11-14T12:28:25;95373.47;;;12.36;81.06
11268;BME280;49397;47.474;9.416;2022-11-14T12:31:00;95376.19;;;12.36;78.26
11268;BME280;49397;47.474;9.416;2022-11-14T12:33:36;95380.03;;;12.26;84.92
11268;BME280;49397;47.474;9.416;2022-11-14T12:36:12;95385.19;;;12.10;93.92
11268;BME280;49397;47.474;9.416;2022-11-14T12:38:44;95397.31;;;12.04;97.10
11268;BME280;49397;47.474;9.416;2022-11-14T12:41:10;95391.72;;;12.01;97.56
11268;BME280;49397;47.474;9.416;2022-11-14T12:43:39;95392.38;;;11.98;95.65
11268;BME280;49397;47.474;9.416;2022-11-14T12:46:07;95389.66;;;11.98;98.21
11268;BME280;49397;47.474;9.416;2022-11-14T12:48:51;95387.72;;;11.98;100.00
11268;BME280;49397;47.474;9.416;2022-11-14T12:53:48;95383.72;;;11.87;97.58
11268;BME280;49397;47.474;9.416;2022-11-14T12:56:24;95385.16;;;11.76;95.58
11268;BME280;49397;47.474;9.416;2022-11-14T13:15:21;95391.03;;;11.44;99.02
11268;BME280;49397;47.474;9.416;2022-11-14T13:18:26;95391.94;;;11.31;97.71
11268;BME280;49397;47.474;9.416;2022-11-14T13:24:08;95391.13;;;11.22;98.60
11268;BME280;49397;47.474;9.416;2022-11-14T13:26:38;95393.66;;;11.19;93.32
11268;BME280;49397;47.474;9.416;2022-11-14T13:29:05;95401.63;;;11.15;94.45
11268;BME280;49397;47.474;9.416;2022-11-14T13:31:47;95394.94;;;11.21;93.04
11268;BME280;49397;47.474;9.416;2022-11-14T13:40:51;95385.84;;;11.26;94.55
11268;BME280;49397;47.474;9.416;2022-11-14T13:46:09;95389.88;;;11.37;95.10
11268;BME280;49397;47.474;9.416;2022-11-14T13:51:18;95367.16;;;11.24;94.44
11268;BME280;49397;47.474;9.416;2022-11-14T13:53:44;95382.19;;;11.30;95.68
11268;BME280;49397;47.474;9.416;2022-11-14T14:04:32;95368.16;;;11.45;96.03
11268;BME280;49397;47.474;9.416;2022-11-14T14:12:58;95371.00;;;11.32;100.00
11268;BME280;49397;47.474;9.416;2022-11-14T14:18:09;95362.34;;;11.21;100.00
11268;BME280;49397;47.474;9.416;2022-11-14T14:20:57;95365.38;;;11.20;100.00
11268;BME280;49397;47.474;9.416;2022-11-14T14:23:45;95366.53;;;11.19;100.00
11268;BME280;49397;47.474;9.416;2022-11-14T14:26:37;95365.53;;;11.15;100.00
11268;BME280;49397;47.474;9.416;2022-11-14T14:29:25;95377.66;;;11.09;100.00
11268;BME280;49397;47.474;9.416;2022-11-14T14:32:09;95374.56;;;10.93;100.00
11268;BME280;49397;47.474;9.416;2022-11-14T14:34:35;95381.72;;;10.89;100.00
11268;BME280;49397;47.474;9.416;2022-11-14T14:37:01;95382.22;;;10.91;100.00
11268;BME280;49397;47.474;9.416;2022-11-14T14:39:27;95381.13;;;10.92;100.00
11268;BME280;49397;47.474;9.416;2022-11-14T14:41:55;95383.03;;;10.92;100.00
11268;BME280;49397;47.474;9.416;2022-11-14T14:44:30;95380.31;;;10.92;100.00
11268;BME280;49397;47.474;9.416;2022-11-14T14:47:13;95390.72;;;10.98;100.00
11268;BME280;49397;47.474;9.416;2022-11-14T14:49:39;95376.47;;;10.93;100.00
11268;BME280;49397;47.474;9.416;2022-11-14T14:54:56;95392.03;;;11.09;100.00
11268;BME280;49397;47.474;9.416;2022-11-14T14:57:22;95387.06;;;11.11;100.00
11268;BME280;49397;47.474;9.416;2022-11-14T15:00:05;95396.97;;;11.07;100.00
11268;BME280;49397;47.474;9.416;2022-11-14T15:02:32;95391.38;;;11.04;100.00
11268;BME280;49397;47.474;9.416;2022-11-14T15:04:58;95400.31;;;11.04;100.00